Warning: Javascript must be enabled to use all the features on this page!


Page Loading - Please Wait...

Click to hideNews Bulletins
Click to hide state-specific text

Explore Real-time Water Data Using New Products from USGS TXWSC

View over 750 USGS real-time stream, lake, reservoir, precipitation, and groundwater stations in context with current weather and hazard conditions on both desktop and mobile devices.

Click to go to the Texas Water Dashboard Click to go to the WATER On-the-go app

Follow @USGS_TexasFlood and @USGS_TexasRain on Twitter to get current water level and precipitation data during flooding or severe rainfall events.


USGS 08195000 Frio Rv at Concan, TX

PROVISIONAL DATA SUBJECT TO REVISION

Click to hidestation-specific text
Funding for this site is provided by the cooperators / programs below:
Click to go to the Edwards Aquifer Authority web page

Edwards Aquifer Authority

Click to go to the Cooperative Matching Funds web page

Cooperative Matching Funds

 

Rainfall Disclaimer


retransmission, forecasts and summary of this location by the National Weather Service
Retransmission, forecasts and summary by the National Weather Service

National Weather Service provided floatability levels for recreational users at several locations throughout Texas.

This station managed by the San Antonio Field Unit.

Available Parameters Available Period
All 6 Available Parameters for this site
  
00010 Temperature, water 2013-07-25  2018-06-20
00045 Precipitation 2018-02-20  2018-06-20
00060 Discharge 1991-10-01  2018-06-20
00065 Gage height 2007-10-01  2018-06-20
00095 Specific cond at 25C 2013-07-02  2018-06-20
99133 NO3+NO2,water,insitu 2015-09-24  2018-06-20

Graph
Graph w/ stats
Graph w/o stats
Graph w/ (up to 3) parms
Table
Tab-separated
Days  (2)
 

  -- or --
Begin date
 

End date
 

Summary of all available data for this site
Instantaneous-data availability statement






Date / Time




Gage
height,
feet,




Dis-
charge,
ft3/s,



Precip-
itation
total,
inches,
Specif-
ic
conduc-
tance,
wat unf
uS/cm @
25 degC,



Temper-
ature,
water,
deg C,

Nitrate
+
nitrite
water,
in situ
mg/L as,
06/18/2018 00:00 CDT3.44P  22.1P  0.00P  485P  27.9P  0.23P  
06/18/2018 00:15 CDT3.43P  21.1P  0.00P  486P  27.9P     
06/18/2018 00:30 CDT3.44P  22.1P  0.00P  487P  27.8P     
06/18/2018 00:45 CDT3.45P  23.1P  0.00P  487P  27.7P     
06/18/2018 01:00 CDT3.43P  21.1P  0.00P  488P  27.6P  0.24P  
06/18/2018 01:15 CDT3.43P  21.1P  0.00P  488P  27.5P     
06/18/2018 01:30 CDT3.43P  21.1P  0.00P  489P  27.5P     
06/18/2018 01:45 CDT3.43P  21.1P  0.00P  490P  27.4P     
06/18/2018 02:00 CDT3.44P  22.1P  0.00P  490P  27.3P  0.24P  
06/18/2018 02:15 CDT3.44P  22.1P  0.00P  491P  27.3P     
06/18/2018 02:30 CDT3.44P  22.1P  0.00P  492P  27.2P     
06/18/2018 02:45 CDT3.43P  21.1P  0.00P  493P  27.2P     
06/18/2018 03:00 CDT3.44P  22.1P  0.00P  494P  27.1P  0.25P  
06/18/2018 03:15 CDT3.43P  21.1P  0.00P  494P  27.1P     
06/18/2018 03:30 CDT3.43P  21.1P  0.00P  494P  27.0P     
06/18/2018 03:45 CDT3.44P  22.1P  0.00P  494P  27.0P     
06/18/2018 04:00 CDT3.43P  21.1P  0.00P  495P  27.0P  0.25P  
06/18/2018 04:15 CDT3.44P  22.1P  0.00P  495P  26.9P     
06/18/2018 04:30 CDT3.44P  22.1P  0.00P  495P  26.9P     
06/18/2018 04:45 CDT3.44P  22.1P  0.00P  496P  26.8P     
06/18/2018 05:00 CDT3.43P  21.1P  0.00P  497P  26.8P  0.26P  
06/18/2018 05:15 CDT3.43P  21.1P  0.00P  498P  26.8P     
06/18/2018 05:30 CDT3.44P  22.1P  0.00P  499P  26.8P     
06/18/2018 05:45 CDT3.43P  21.1P  0.00P  499P  26.7P     
06/18/2018 06:00 CDT3.44P  22.1P  0.00P  499P  26.7P  0.26P  
06/18/2018 06:15 CDT3.44P  22.1P  0.00P  499P  26.7P     
06/18/2018 06:30 CDT3.44P  22.1P  0.00P  499P  26.7P     
06/18/2018 06:45 CDT3.44P  22.1P  0.00P  499P  26.6P     
06/18/2018 07:00 CDT3.44P  22.1P  0.00P  500P  26.6P  0.26P  
06/18/2018 07:15 CDT3.44P  22.1P  0.00P  500P  26.6P     
06/18/2018 07:30 CDT3.44P  22.1P  0.00P  499P  26.6P     
06/18/2018 07:45 CDT3.44P  22.1P  0.00P  497P  26.6P     
06/18/2018 08:00 CDT3.44P  22.1P  0.00P  498P  26.5P  0.27P  
06/18/2018 08:15 CDT3.43P  21.1P  0.00P  498P  26.5P     
06/18/2018 08:30 CDT3.43P  21.1P  0.00P  498P  26.5P     
06/18/2018 08:45 CDT3.44P  22.1P  0.00P  498P  26.5P     
06/18/2018 09:00 CDT3.44P  22.1P  0.00P  499P  26.5P  0.28P  
06/18/2018 09:15 CDT3.44P  22.1P  0.00P  498P  26.5P     
06/18/2018 09:30 CDT3.43P  21.1P  0.00P  498P  26.5P     
06/18/2018 09:45 CDT3.44P  22.1P  0.00P  500P  26.5P     
06/18/2018 10:00 CDT3.43P  21.1P  0.00P  502P  26.5P  0.27P  
06/18/2018 10:15 CDT3.43P  21.1P  0.00P  503P  26.5P     
06/18/2018 10:30 CDT3.44P  22.1P  0.00P  504P  26.5P     
06/18/2018 10:45 CDT3.44P  22.1P  0.00P  505P  26.6P     
06/18/2018 11:00 CDT3.43P  21.1P  0.00P  505P  26.6P  0.27P  
06/18/2018 11:15 CDT3.43P  21.1P  0.00P  507P  26.6P     
06/18/2018 11:30 CDT3.44P  22.1P  0.00P  507P  26.6P     
06/18/2018 11:45 CDT3.44P  22.1P  0.01P  508P  26.6P     
06/18/2018 12:00 CDT3.46P  24.2P  0.08P  508P  26.6P  0.27P  
06/18/2018 12:15 CDT3.45P  23.1P  0.05P  510P  26.6P     
06/18/2018 12:30 CDT3.46P  24.2P  0.05P  510P  26.6P     
06/18/2018 12:45 CDT3.46P  24.2P  0.03P  510P  26.6P     
06/18/2018 13:00 CDT3.45P  23.1P  0.00P  510P  26.6P  0.26P  
06/18/2018 13:15 CDT3.45P  23.1P  0.00P  510P  26.7P     
06/18/2018 13:30 CDT3.45P  23.1P  0.00P  509P  26.7P     
06/18/2018 13:45 CDT3.44P  22.1P  0.00P  507P  26.8P     
06/18/2018 14:00 CDT3.44P  22.1P  0.00P  506P  27.0P  0.26P  
06/18/2018 14:15 CDT3.44P  22.1P  0.00P  503P  27.1P     
06/18/2018 14:30 CDT3.44P  22.1P  0.00P  501P  27.3P     
06/18/2018 14:45 CDT3.44P  22.1P  0.00P  498P  27.4P     
06/18/2018 15:00 CDT3.45P  23.1P  0.00P  497P  27.5P  0.25P  
06/18/2018 15:15 CDT3.44P  22.1P  0.00P  496P  27.7P     
06/18/2018 15:30 CDT3.44P  22.1P  0.00P  494P  27.8P     
06/18/2018 15:45 CDT3.45P  23.1P  0.00P  492P  28.0P     
06/18/2018 16:00 CDT3.44P  22.1P  0.00P  490P  28.2P  0.23P  
06/18/2018 16:15 CDT3.43P  21.1P  0.00P  487P  28.4P     
06/18/2018 16:30 CDT3.44P  22.1P  0.00P  485P  28.6P     
06/18/2018 16:45 CDT3.44P  22.1P  0.00P  484P  28.8P     
06/18/2018 17:00 CDT3.44P  22.1P  0.00P  482P  28.9P  0.22P  
06/18/2018 17:15 CDT3.43P  21.1P  0.00P  481P  29.1P     
06/18/2018 17:30 CDT3.44P  22.1P  0.00P  480P  29.2P     
06/18/2018 17:45 CDT3.44P  22.1P  0.00P  479P  29.3P     
06/18/2018 18:00 CDT3.43P  21.1P  0.00P  480P  29.4P  0.22P  
06/18/2018 18:15 CDT3.43P  21.1P  0.00P  480P  29.4P     
06/18/2018 18:30 CDT3.43P  21.1P  0.00P  480P  29.5P     
06/18/2018 18:45 CDT3.43P  21.1P  0.00P  480P  29.5P     
06/18/2018 19:00 CDT3.44P  22.1P  0.00P  480P  29.6P  0.21P  
06/18/2018 19:15 CDT3.44P  22.1P  0.00P  480P  29.6P     
06/18/2018 19:30 CDT3.43P  21.1P  0.00P  481P  29.6P     
06/18/2018 19:45 CDT3.44P  22.1P  0.00P  482P  29.6P     
06/18/2018 20:00 CDT3.43P  21.1P  0.00P  483P  29.5P  0.21P  
06/18/2018 20:15 CDT3.43P  21.1P  0.00P  485P  29.4P     
06/18/2018 20:30 CDT3.44P  22.1P  0.00P  486P  29.4P     
06/18/2018 20:45 CDT3.43P  21.1P  0.00P  487P  29.3P     
06/18/2018 21:00 CDT3.44P  22.1P  0.00P  489P  29.3P  0.21P  
06/18/2018 21:15 CDT3.44P  22.1P  0.00P  490P  29.2P     
06/18/2018 21:30 CDT3.43P  21.1P  0.00P  490P  29.2P     
06/18/2018 21:45 CDT3.44P  22.1P  0.00P  490P  29.2P     
06/18/2018 22:00 CDT3.43P  21.1P  0.00P  492P  29.1P  0.22P  
06/18/2018 22:15 CDT3.43P  21.1P  0.00P  492P  29.0P     
06/18/2018 22:30 CDT3.44P  22.1P  0.00P  493P  29.0P     
06/18/2018 22:45 CDT3.44P  22.1P  0.00P  494P  28.9P     
06/18/2018 23:00 CDT3.44P  22.1P  0.00P  495P  28.8P  0.21P  
06/18/2018 23:15 CDT3.44P  22.1P  0.00P  494P  28.7P     
06/18/2018 23:30 CDT3.44P  22.1P  0.00P  496P  28.7P     
06/18/2018 23:45 CDT3.43P  21.1P  0.00P  498P  28.6P     
06/19/2018 00:00 CDT3.44P  22.1P  0.00P  499P  28.5P  0.21P  
06/19/2018 00:15 CDT3.43P  21.1P  0.00P  500P  28.4P     
06/19/2018 00:30 CDT3.44P  22.1P  0.00P  501P  28.4P     
06/19/2018 00:45 CDT3.44P  22.1P  0.00P  501P  28.3P     
06/19/2018 01:00 CDT3.44P  22.1P  0.00P  501P  28.2P  0.22P  
06/19/2018 01:15 CDT3.43P  21.1P  0.00P  503P  28.1P     
06/19/2018 01:30 CDT3.43P  21.1P  0.00P  503P  28.1P     
06/19/2018 01:45 CDT3.43P  21.1P  0.00P  504P  28.0P     
06/19/2018 02:00 CDT3.43P  21.1P  0.00P  504P  27.9P  0.22P  
06/19/2018 02:15 CDT3.44P  22.1P  0.00P  505P  27.9P     
06/19/2018 02:30 CDT3.44P  22.1P  0.00P  506P  27.8P     
06/19/2018 02:45 CDT3.43P  21.1P  0.00P  506P  27.7P     
06/19/2018 03:00 CDT3.43P  21.1P  0.00P  506P  27.7P  0.22P  
06/19/2018 03:15 CDT3.43P  21.1P  0.00P  508P  27.6P     
06/19/2018 03:30 CDT3.43P  21.1P  0.00P  507P  27.6P     
06/19/2018 03:45 CDT3.44P  22.1P  0.00P  507P  27.5P     
06/19/2018 04:00 CDT3.43P  21.1P  0.00P  508P  27.5P  0.23P  
06/19/2018 04:15 CDT3.44P  22.1P  0.00P  508P  27.4P     
06/19/2018 04:30 CDT3.43P  21.1P  0.00P  509P  27.4P     
06/19/2018 04:45 CDT3.44P  22.1P  0.00P  508P  27.4P     
06/19/2018 05:00 CDT3.44P  22.1P  0.00P  509P  27.3P  0.23P  
06/19/2018 05:15 CDT3.45P  23.1P  0.00P  509P  27.2P     
06/19/2018 05:30 CDT3.44P  22.1P  0.00P  509P  27.2P     
06/19/2018 05:45 CDT3.43P  21.1P  0.00P  509P  27.2P     
06/19/2018 06:00 CDT3.45P  23.1P  0.00P  509P  27.1P  0.22P  
06/19/2018 06:15 CDT3.44P  22.1P  0.00P  510P  27.0P     
06/19/2018 06:30 CDT3.43P  21.1P  0.00P  510P  27.0P     
06/19/2018 06:45 CDT3.43P  21.1P  0.00P  509P  27.0P     
06/19/2018 07:00 CDT3.44P  22.1P  0.00P  509P  26.9P  0.23P  
06/19/2018 07:15 CDT3.43P  21.1P  0.00P  509P  26.9P     
06/19/2018 07:30 CDT3.44P  22.1P  0.00P  507P  26.9P     
06/19/2018 07:45 CDT3.43P  21.1P  0.00P  507P  26.8P     
06/19/2018 08:00 CDT3.44P  22.1P  0.00P  508P  26.8P  0.22P  
06/19/2018 08:15 CDT3.44P  22.1P  0.00P  507P  26.8P     
06/19/2018 08:30 CDT3.44P  22.1P  0.00P  506P  26.8P     
06/19/2018 08:45 CDT3.43P  21.1P  0.00P  505P  26.7P     
06/19/2018 09:00 CDT3.43P  21.1P  0.00P  505P  26.7P  0.23P  
06/19/2018 09:15 CDT3.45P  23.1P  0.00P  506P  26.7P     
06/19/2018 09:30 CDT3.43P  21.1P  0.00P  507P  26.7P     
06/19/2018 09:45 CDT3.43P  21.1P  0.00P  506P  26.7P     
06/19/2018 10:00 CDT3.44P  22.1P  0.00P  505P  26.7P  0.23P  
06/19/2018 10:15 CDT3.44P  22.1P  0.00P  505P  26.7P     
06/19/2018 10:30 CDT3.44P  22.1P  0.00P  505P  26.7P     
06/19/2018 10:45 CDT3.43P  21.1P  0.00P  504P  26.7P     
06/19/2018 11:00 CDT3.43P  21.1P  0.00P  504P  26.7P  0.22P  
06/19/2018 11:15 CDT3.44P  22.1P  0.00P  500P  26.8P     
06/19/2018 11:30 CDT3.44P  22.1P  0.00P  498P  26.8P     
06/19/2018 11:45 CDT3.45P  23.1P  0.00P  498P  26.9P     
06/19/2018 12:00 CDT3.44P  22.1P  0.00P  495P  27.0P  0.22P  
06/19/2018 12:15 CDT3.44P  22.1P  0.00P  493P  27.1P     
06/19/2018 12:30 CDT3.43P  21.1P  0.00P  491P  27.2P     
06/19/2018 12:45 CDT3.44P  22.1P  0.00P  490P  27.2P     
06/19/2018 13:00 CDT3.44P  22.1P  0.00P  487P  27.3P  0.22P  
06/19/2018 13:15 CDT3.43P  21.1P  0.00P  485P  27.4P     
06/19/2018 13:30 CDT3.44P  22.1P  0.00P  484P  27.4P     
06/19/2018 13:45 CDT3.44P  22.1P  0.00P  482P  27.5P     
06/19/2018 14:00 CDT3.44P  22.1P  0.00P  481P  27.5P  0.22P  
06/19/2018 14:15 CDT3.43P  21.1P  0.00P  480P  27.6P     
06/19/2018 14:30 CDT3.44P  22.1P  0.00P  478P  27.6P     
06/19/2018 14:45 CDT3.44P  22.1P  0.00P  477P  27.7P     
06/19/2018 15:00 CDT3.44P  22.1P  0.00P  475P  27.7P  0.22P  
06/19/2018 15:15 CDT3.43P  21.1P  0.00P  474P  27.8P     
06/19/2018 15:30 CDT3.44P  22.1P  0.00P  473P  27.9P     
06/19/2018 15:45 CDT3.45P  23.1P  0.00P  475P  27.9P     
06/19/2018 16:00 CDT3.44P  22.1P  0.00P  473P  28.0P  0.20P  
06/19/2018 16:15 CDT3.44P  22.1P  0.00P  473P  28.0P     
06/19/2018 16:30 CDT3.44P  22.1P  0.00P  473P  28.0P     
06/19/2018 16:45 CDT3.43P  21.1P  0.00P  472P  28.1P     
06/19/2018 17:00 CDT3.43P  21.1P  0.00P  472P  28.1P  0.20P  
06/19/2018 17:15 CDT3.45P  23.1P  0.00P  472P  28.1P     
06/19/2018 17:30 CDT3.42P  20.1P  0.00P  472P  28.1P     
06/19/2018 17:45 CDT3.43P  21.1P  0.00P  471P  28.1P     
06/19/2018 18:00 CDT3.43P  21.1P  0.00P  471P  28.2P  0.20P  
06/19/2018 18:15 CDT3.42P  20.1P  0.00P  470P  28.2P     
06/19/2018 18:30 CDT3.43P  21.1P  0.00P  470P  28.2P     
06/19/2018 18:45 CDT3.44P  22.1P  0.00P  471P  28.2P     
06/19/2018 19:00 CDT3.43P  21.1P  0.00P  471P  28.2P  0.20P  
06/19/2018 19:15 CDT3.44P  22.1P  0.00P  471P  28.2P     
06/19/2018 19:30 CDT3.44P  22.1P  0.00P  472P  28.1P     
06/19/2018 19:45 CDT3.44P  22.1P  0.00P  473P  28.1P     
06/19/2018 20:00 CDT3.44P  22.1P  0.00P  474P  28.1P  0.20P  
06/19/2018 20:15 CDT3.44P  22.1P  0.00P  474P  28.0P     
06/19/2018 20:30 CDT3.43P  21.1P  0.00P  475P  28.0P     
06/19/2018 20:45 CDT3.44P  22.1P  0.00P  475P  28.0P     
06/19/2018 21:00 CDT3.43P  21.1P  0.00P  475P  28.0P  0.21P  
06/19/2018 21:15 CDT3.43P  21.1P  0.00P  476P  28.0P     
06/19/2018 21:30 CDT3.43P  21.1P  0.00P  476P  27.9P     
06/19/2018 21:45 CDT3.43P  21.1P  0.00P  476P  27.9P     
06/19/2018 22:00 CDT3.43P  21.1P  0.00P  477P  27.8P  0.21P  
06/19/2018 22:15 CDT3.44P  22.1P  0.00P  477P  27.8P     
06/19/2018 22:30 CDT3.43P  21.1P  0.00P  477P  27.8P     
06/19/2018 22:45 CDT3.42P  20.1P  0.00P  478P  27.7P     
06/19/2018 23:00 CDT3.44P  22.1P  0.00P  478P  27.6P  0.21P  
06/19/2018 23:15 CDT3.43P  21.1P  0.00P  478P  27.6P     
06/19/2018 23:30 CDT3.43P  21.1P  0.00P  479P  27.5P     
06/19/2018 23:45 CDT3.43P  21.1P  0.00P  479P  27.5P     
06/20/2018 00:00 CDT3.44P  22.1P  0.00P  480P  27.4P  0.21P  
06/20/2018 00:15 CDT3.44P  22.1P  0.00P  481P  27.4P     
06/20/2018 00:30 CDT3.44P  22.1P  0.00P  481P  27.3P     
06/20/2018 00:45 CDT3.43P  21.1P  0.00P  482P  27.3P     
06/20/2018 01:00 CDT3.44P  22.1P  0.00P  482P  27.2P  0.21P  
06/20/2018 01:15 CDT3.43P  21.1P  0.00P  482P  27.2P     
06/20/2018 01:30 CDT3.43P  21.1P  0.00P  481P  27.1P     
06/20/2018 01:45 CDT3.44P  22.1P  0.00P  482P  27.0P     
06/20/2018 02:00 CDT3.44P  22.1P  0.00P  482P  27.0P  0.21P  
06/20/2018 02:15 CDT3.44P  22.1P  0.00P  483P  26.9P     
06/20/2018 02:30 CDT3.44P  22.1P  0.00P  482P  26.9P     
06/20/2018 02:45 CDT3.43P  21.1P  0.00P  485P  26.8P     
06/20/2018 03:00 CDT3.44P  22.1P  0.00P  482P  26.8P  0.22P  
06/20/2018 03:15 CDT3.43P  21.1P  0.00P  481P  26.7P     
06/20/2018 03:30 CDT3.44P  22.1P  0.00P  481P  26.7P     
06/20/2018 03:45 CDT3.44P  22.1P  0.00P  481P  26.7P     
06/20/2018 04:00 CDT3.43P  21.1P  0.00P  481P  26.6P  0.22P  
06/20/2018 04:15 CDT3.43P  21.1P  0.00P  481P  26.6P     
06/20/2018 04:30 CDT3.43P  21.1P  0.00P  481P  26.5P     
06/20/2018 04:45 CDT3.43P  21.1P  0.00P  480P  26.5P     
06/20/2018 05:00 CDT3.43P  21.1P  0.00P  480P  26.4P  0.22P  
06/20/2018 05:15 CDT3.44P  22.1P  0.00P  480P  26.4P     
06/20/2018 05:30 CDT3.44P  22.1P  0.00P  480P  26.4P     
06/20/2018 05:45 CDT3.43P  21.1P  0.01P  480P  26.4P     
06/20/2018 06:00 CDT3.43P  21.1P  0.01P  480P  26.3P  0.22P  
06/20/2018 06:15 CDT3.43P  21.1P  0.00P  478P  26.3P     
06/20/2018 06:30 CDT3.44P  22.1P  0.01P  478P  26.3P     
06/20/2018 06:45 CDT3.44P  22.1P  0.00P  479P  26.2P     
06/20/2018 07:00 CDT3.44P  22.1P  0.00P  479P  26.2P  0.22P  
06/20/2018 07:15 CDT3.44P  22.1P  0.00P  479P  26.2P     
06/20/2018 07:30 CDT3.43P  21.1P  0.00P  478P  26.2P     
06/20/2018 07:45 CDT3.44P  22.1P  0.00P  478P  26.1P     
06/20/2018 08:00 CDT3.44P  22.1P  0.00P  478P  26.1P  0.22P  
06/20/2018 08:15 CDT3.43P  21.1P  0.00P  478P  26.1P     
06/20/2018 08:30 CDT3.43P  21.1P  0.00P  478P  26.1P     
06/20/2018 08:45 CDT3.43P  21.1P  0.00P  478P  26.1P     
06/20/2018 09:00 CDT3.43P  21.1P  0.00P  478P  26.0P  0.23P  
06/20/2018 09:15 CDT3.43P  21.1P  0.00P  478P  26.0P     
06/20/2018 09:30 CDT3.44P  22.1P  0.00P  478P  26.0P     
06/20/2018 09:45 CDT3.43P  21.1P  0.00P  478P  26.0P     
06/20/2018 10:00 CDT3.43P  21.1P  0.00P  478P  26.0P  0.23P  
06/20/2018 10:15 CDT3.44P  22.1P  0.00P  478P  26.0P     
06/20/2018 10:30 CDT3.43P  21.1P  0.00P  478P  26.1P     
06/20/2018 10:45 CDT3.44P  22.1P  0.00P  477P  26.1P     
06/20/2018 11:00 CDT3.44P  22.1P  0.00P  479P  26.1P  0.23P  
06/20/2018 11:15 CDT3.43P  21.1P  0.00P  481P  26.2P     
06/20/2018 11:30 CDT3.43P  21.1P  0.00P  481P  26.3P     
06/20/2018 11:45 CDT3.43P  21.1P  0.00P  482P  26.3P     
06/20/2018 12:00 CDT3.43P  21.1P  0.00P  483P  26.4P  0.22P  
06/20/2018 12:15 CDT3.43P  21.1P  0.00P  483P  26.5P     
06/20/2018 12:30 CDT3.43P  21.1P  0.00P  483P  26.5P     
06/20/2018 12:45 CDT3.44P  22.1P  0.00P  483P  26.6P     
06/20/2018 13:00 CDT3.44P  22.1P  0.00P  484P  26.6P  0.22P  
06/20/2018 13:15 CDT3.44P  22.1P  0.00P  484P  26.6P     
06/20/2018 13:30 CDT3.44P  22.1P  0.00P  484P  26.7P     
06/20/2018 13:45 CDT3.44P  22.1P  0.00P  485P  26.8P     
06/20/2018 14:00 CDT3.44P  22.1P  0.00P  484P  26.9P  0.21P  
06/20/2018 14:15 CDT3.44P  22.1P  0.00P  484P  27.0P     
06/20/2018 14:30 CDT3.43P  21.1P  0.00P  484P  27.1P     
06/20/2018 14:45 CDT3.43P  21.1P  0.00P  483P  27.3P     
06/20/2018 15:00 CDT3.44P  22.1P  0.00P  484P  27.4P  0.20P  
06/20/2018 15:15 CDT3.42P  20.1P  0.00P  483P  27.5P     
06/20/2018 15:30 CDT3.43P  21.1P  0.00P  483P  27.6P     
06/20/2018 15:45 CDT3.44P  22.1P  0.00P  482P  27.8P     
06/20/2018 16:00 CDT3.44P  22.1P  0.00P  480P  27.9P  0.20P  
06/20/2018 16:15 CDT3.43P  21.1P  0.00P  480P  28.0P     
06/20/2018 16:30 CDT3.44P  22.1P  0.00P  480P  28.2P     
06/20/2018 16:45 CDT3.45P  23.1P  0.00P  480P  28.3P     
06/20/2018 17:00 CDT3.42P  20.1P  0.00P  480P  28.4P  0.20P  
06/20/2018 17:15 CDT3.44P  22.1P  0.00P  479P  28.5P     
06/20/2018 17:30 CDT3.44P  22.1P  0.00P  479P  28.5P     
06/20/2018 17:45 CDT3.42P  20.1P  0.00P  479P  28.5P     
06/20/2018 18:00 CDT3.44P  22.1P  0.00P  479P  28.5P  0.19P  
06/20/2018 18:15 CDT3.44P  22.1P  0.00P  482P  28.5P     
06/20/2018 18:30 CDT3.43P  21.1P  0.00P  480P  28.5P     
06/20/2018 18:45 CDT3.43P  21.1P  0.00P  479P  28.5P     
06/20/2018 19:00 CDT3.43P  21.1P  0.00P  480P  28.5P  0.19P  
06/20/2018 19:15 CDT3.44P  22.1P  0.00P  480P  28.4P     
06/20/2018 19:30 CDT3.43P  21.1P  0.00P  480P  28.4P     
06/20/2018 19:45 CDT3.44P  22.1P  0.00P  481P  28.4P     
06/20/2018 20:00 CDT3.44P  22.1P  0.00P  481P  28.4P  0.20P  
06/20/2018 20:15 CDT3.43P  21.1P  0.00P  480P  28.3P     
06/20/2018 20:30 CDT3.44P  22.1P  0.00P  480P  28.3P     
06/20/2018 20:45 CDT3.43P  21.1P  0.00P  480P  28.3P     
06/20/2018 21:00 CDT3.43P  21.1P  0.00P  480P  28.2P  0.20P  
06/20/2018 21:15 CDT3.44P  22.1P  0.00P  479P  28.2P     
06/20/2018 21:30 CDT3.44P  22.1P  0.00P  480P  28.1P     

Explanation
  P  Provisional data subject to revision.